sensor_id;sensor_type;location;lat;lon;timestamp;temperature;humidity
4602;DHT22;2313;48.552;9.370;2023-06-10T00:01:22;19.30;99.90
4602;DHT22;2313;48.552;9.370;2023-06-10T00:03:50;19.30;99.90
4602;DHT22;2313;48.552;9.370;2023-06-10T00:06:16;19.20;99.90
4602;DHT22;2313;48.552;9.370;2023-06-10T00:08:44;19.10;99.90
4602;DHT22;2313;48.552;9.370;2023-06-10T00:11:12;19.00;99.90
4602;DHT22;2313;48.552;9.370;2023-06-10T00:13:38;18.90;99.90
4602;DHT22;2313;48.552;9.370;2023-06-10T00:16:03;18.80;99.90
4602;DHT22;2313;48.552;9.370;2023-06-10T00:18:29;18.70;99.90
4602;DHT22;2313;48.552;9.370;2023-06-10T00:20:57;18.70;99.90
4602;DHT22;2313;48.552;9.370;2023-06-10T00:23:28;18.70;99.90
4602;DHT22;2313;48.552;9.370;2023-06-10T00:25:57;18.70;99.90
4602;DHT22;2313;48.552;9.370;2023-06-10T00:28:23;18.60;99.90
4602;DHT22;2313;48.552;9.370;2023-06-10T00:30:49;18.50;99.90
4602;DHT22;2313;48.552;9.370;2023-06-10T00:33:14;18.30;99.90
4602;DHT22;2313;48.552;9.370;2023-06-10T00:35:40;18.30;99.90
4602;DHT22;2313;48.552;9.370;2023-06-10T00:38:06;18.30;99.90
4602;DHT22;2313;48.552;9.370;2023-06-10T00:40:38;18.20;99.90
4602;DHT22;2313;48.552;9.370;2023-06-10T00:43:04;18.30;99.90
4602;DHT22;2313;48.552;9.370;2023-06-10T00:45:30;18.50;99.90
4602;DHT22;2313;48.552;9.370;2023-06-10T00:47:55;18.60;99.90
4602;DHT22;2313;48.552;9.370;2023-06-10T00:50:21;18.70;99.90
4602;DHT22;2313;48.552;9.370;2023-06-10T00:52:47;18.60;99.90
4602;DHT22;2313;48.552;9.370;2023-06-10T00:55:15;18.30;99.90
4602;DHT22;2313;48.552;9.370;2023-06-10T00:57:41;18.20;99.90
4602;DHT22;2313;48.552;9.370;2023-06-10T01:00:10;18.10;99.90
4602;DHT22;2313;48.552;9.370;2023-06-10T01:02:37;18.00;99.90
4602;DHT22;2313;48.552;9.370;2023-06-10T01:05:03;18.00;99.90
4602;DHT22;2313;48.552;9.370;2023-06-10T01:07:38;17.80;99.90
4602;DHT22;2313;48.552;9.370;2023-06-10T01:12:52;17.50;99.90
4602;DHT22;2313;48.552;9.370;2023-06-10T01:15:22;17.50;99.90
4602;DHT22;2313;48.552;9.370;2023-06-10T01:18:02;17.40;99.90
4602;DHT22;2313;48.552;9.370;2023-06-10T01:20:29;17.40;99.90
4602;DHT22;2313;48.552;9.370;2023-06-10T01:22:59;17.30;99.90
4602;DHT22;2313;48.552;9.370;2023-06-10T01:25:26;17.30;99.90
4602;DHT22;2313;48.552;9.370;2023-06-10T01:28:36;17.20;99.90
4602;DHT22;2313;48.552;9.370;2023-06-10T01:33:37;17.20;99.90
4602;DHT22;2313;48.552;9.370;2023-06-10T01:36:04;17.20;99.90
4602;DHT22;2313;48.552;9.370;2023-06-10T01:38:33;17.10;99.90
4602;DHT22;2313;48.552;9.370;2023-06-10T01:41:02;17.10;99.90
4602;DHT22;2313;48.552;9.370;2023-06-10T01:43:28;16.90;99.90
4602;DHT22;2313;48.552;9.370;2023-06-10T01:45:54;16.90;99.90
4602;DHT22;2313;48.552;9.370;2023-06-10T01:48:19;16.90;99.90
4602;DHT22;2313;48.552;9.370;2023-06-10T01:50:45;16.80;99.90
4602;DHT22;2313;48.552;9.370;2023-06-10T01:53:11;16.80;99.90
4602;DHT22;2313;48.552;9.370;2023-06-10T01:55:36;16.70;99.90
4602;DHT22;2313;48.552;9.370;2023-06-10T01:58:02;16.70;99.90
4602;DHT22;2313;48.552;9.370;2023-06-10T02:00:28;16.60;99.90
4602;DHT22;2313;48.552;9.370;2023-06-10T02:02:53;16.60;99.90
4602;DHT22;2313;48.552;9.370;2023-06-10T02:05:19;16.70;99.90
4602;DHT22;2313;48.552;9.370;2023-06-10T02:07:44;16.80;99.90
4602;DHT22;2313;48.552;9.370;2023-06-10T02:10:10;16.80;99.90
4602;DHT22;2313;48.552;9.370;2023-06-10T02:12:36;16.90;99.90
4602;DHT22;2313;48.552;9.370;2023-06-10T02:15:01;16.80;99.90
4602;DHT22;2313;48.552;9.370;2023-06-10T02:17:27;16.90;99.90
4602;DHT22;2313;48.552;9.370;2023-06-10T02:19:53;16.90;99.90
4602;DHT22;2313;48.552;9.370;2023-06-10T02:22:22;16.90;99.90
4602;DHT22;2313;48.552;9.370;2023-06-10T02:24:48;16.90;99.90
4602;DHT22;2313;48.552;9.370;2023-06-10T02:27:15;16.90;99.90
4602;DHT22;2313;48.552;9.370;2023-06-10T02:29:41;17.00;99.90
4602;DHT22;2313;48.552;9.370;2023-06-10T02:32:07;17.10;99.90
4602;DHT22;2313;48.552;9.370;2023-06-10T02:34:33;17.10;99.90
4602;DHT22;2313;48.552;9.370;2023-06-10T02:37:00;17.10;99.90
4602;DHT22;2313;48.552;9.370;2023-06-10T02:39:26;17.20;99.90
4602;DHT22;2313;48.552;9.370;2023-06-10T02:41:51;17.20;99.90
4602;DHT22;2313;48.552;9.370;2023-06-10T02:44:20;17.20;99.90
4602;DHT22;2313;48.552;9.370;2023-06-10T02:46:46;17.10;99.90
4602;DHT22;2313;48.552;9.370;2023-06-10T02:49:12;17.30;99.90
4602;DHT22;2313;48.552;9.370;2023-06-10T02:51:38;17.40;99.90
4602;DHT22;2313;48.552;9.370;2023-06-10T02:54:04;17.20;99.90
4602;DHT22;2313;48.552;9.370;2023-06-10T02:56:30;17.00;99.90
4602;DHT22;2313;48.552;9.370;2023-06-10T02:58:57;16.90;99.90
4602;DHT22;2313;48.552;9.370;2023-06-10T03:01:23;16.60;99.90
4602;DHT22;2313;48.552;9.370;2023-06-10T03:03:48;16.40;99.90
4602;DHT22;2313;48.552;9.370;2023-06-10T03:06:15;16.30;99.90
4602;DHT22;2313;48.552;9.370;2023-06-10T03:08:41;16.20;99.90
4602;DHT22;2313;48.552;9.370;2023-06-10T03:11:07;16.10;99.90
4602;DHT22;2313;48.552;9.370;2023-06-10T03:13:32;16.10;99.90
4602;DHT22;2313;48.552;9.370;2023-06-10T03:15:58;16.10;99.90
4602;DHT22;2313;48.552;9.370;2023-06-10T03:18:27;16.10;99.90
4602;DHT22;2313;48.552;9.370;2023-06-10T03:20:56;16.00;99.90
4602;DHT22;2313;48.552;9.370;2023-06-10T03:23:23;15.90;99.90
4602;DHT22;2313;48.552;9.370;2023-06-10T03:25:51;15.90;99.90
4602;DHT22;2313;48.552;9.370;2023-06-10T03:28:18;15.70;99.90
4602;DHT22;2313;48.552;9.370;2023-06-10T03:30:43;15.60;99.90
4602;DHT22;2313;48.552;9.370;2023-06-10T03:33:09;15.60;99.90
4602;DHT22;2313;48.552;9.370;2023-06-10T03:35:34;15.50;99.90
4602;DHT22;2313;48.552;9.370;2023-06-10T03:38:00;15.20;99.90
4602;DHT22;2313;48.552;9.370;2023-06-10T03:40:26;15.40;99.90
4602;DHT22;2313;48.552;9.370;2023-06-10T03:42:51;15.30;99.90
4602;DHT22;2313;48.552;9.370;2023-06-10T03:45:17;15.30;99.90
4602;DHT22;2313;48.552;9.370;2023-06-10T03:47:43;15.30;99.90
4602;DHT22;2313;48.552;9.370;2023-06-10T03:50:09;15.10;99.90
4602;DHT22;2313;48.552;9.370;2023-06-10T03:52:35;15.00;99.90
4602;DHT22;2313;48.552;9.370;2023-06-10T03:55:01;15.00;99.90
4602;DHT22;2313;48.552;9.370;2023-06-10T03:57:27;15.00;99.90
4602;DHT22;2313;48.552;9.370;2023-06-10T03:59:53;14.90;99.90
4602;DHT22;2313;48.552;9.370;2023-06-10T04:02:19;15.00;99.90
4602;DHT22;2313;48.552;9.370;2023-06-10T04:04:44;15.10;99.90
4602;DHT22;2313;48.552;9.370;2023-06-10T04:07:10;15.30;99.90
4602;DHT22;2313;48.552;9.370;2023-06-10T04:09:36;15.30;99.90
4602;DHT22;2313;48.552;9.370;2023-06-10T04:12:03;15.30;99.90
4602;DHT22;2313;48.552;9.370;2023-06-10T04:14:31;15.40;99.90
4602;DHT22;2313;48.552;9.370;2023-06-10T04:16:57;15.40;99.90
4602;DHT22;2313;48.552;9.370;2023-06-10T04:19:22;15.40;99.90
4602;DHT22;2313;48.552;9.370;2023-06-10T04:21:48;15.50;99.90
4602;DHT22;2313;48.552;9.370;2023-06-10T04:24:13;15.50;99.90
4602;DHT22;2313;48.552;9.370;2023-06-10T04:26:39;15.50;99.90
4602;DHT22;2313;48.552;9.370;2023-06-10T04:29:05;15.60;99.90
4602;DHT22;2313;48.552;9.370;2023-06-10T04:31:30;15.60;99.90
4602;DHT22;2313;48.552;9.370;2023-06-10T04:33:57;15.80;99.90
4602;DHT22;2313;48.552;9.370;2023-06-10T04:36:23;15.80;99.90
4602;DHT22;2313;48.552;9.370;2023-06-10T04:38:49;15.80;99.90
4602;DHT22;2313;48.552;9.370;2023-06-10T04:41:14;16.00;99.90
4602;DHT22;2313;48.552;9.370;2023-06-10T04:43:40;16.10;99.90
4602;DHT22;2313;48.552;9.370;2023-06-10T04:46:06;16.10;99.90
4602;DHT22;2313;48.552;9.370;2023-06-10T04:48:31;16.10;99.90
4602;DHT22;2313;48.552;9.370;2023-06-10T04:51:00;16.30;99.90
4602;DHT22;2313;48.552;9.370;2023-06-10T04:53:26;16.30;99.90
4602;DHT22;2313;48.552;9.370;2023-06-10T04:55:52;16.40;99.90
4602;DHT22;2313;48.552;9.370;2023-06-10T04:58:17;16.50;99.90
4602;DHT22;2313;48.552;9.370;2023-06-10T05:00:43;16.60;99.90
4602;DHT22;2313;48.552;9.370;2023-06-10T05:03:09;16.50;99.90
4602;DHT22;2313;48.552;9.370;2023-06-10T05:05:34;16.60;99.90
4602;DHT22;2313;48.552;9.370;2023-06-10T05:08:00;16.70;99.90
4602;DHT22;2313;48.552;9.370;2023-06-10T05:10:25;16.70;99.90
4602;DHT22;2313;48.552;9.370;2023-06-10T05:12:51;16.80;99.90
4602;DHT22;2313;48.552;9.370;2023-06-10T05:15:17;16.90;99.90
4602;DHT22;2313;48.552;9.370;2023-06-10T05:17:42;16.90;99.90
4602;DHT22;2313;48.552;9.370;2023-06-10T05:20:08;16.90;99.90
4602;DHT22;2313;48.552;9.370;2023-06-10T05:22:34;17.00;99.90
4602;DHT22;2313;48.552;9.370;2023-06-10T05:25:00;17.30;99.90
4602;DHT22;2313;48.552;9.370;2023-06-10T05:27:25;17.50;99.90
4602;DHT22;2313;48.552;9.370;2023-06-10T05:29:51;17.60;99.90
4602;DHT22;2313;48.552;9.370;2023-06-10T05:32:17;17.80;99.90
4602;DHT22;2313;48.552;9.370;2023-06-10T05:34:43;18.00;99.90
4602;DHT22;2313;48.552;9.370;2023-06-10T05:37:08;18.10;99.90
4602;DHT22;2313;48.552;9.370;2023-06-10T05:39:35;18.10;99.90
4602;DHT22;2313;48.552;9.370;2023-06-10T05:42:04;18.20;99.90
4602;DHT22;2313;48.552;9.370;2023-06-10T05:44:32;18.20;99.90
4602;DHT22;2313;48.552;9.370;2023-06-10T05:46:57;18.20;99.90
4602;DHT22;2313;48.552;9.370;2023-06-10T05:49:23;18.30;99.90
4602;DHT22;2313;48.552;9.370;2023-06-10T05:51:48;18.40;99.90
4602;DHT22;2313;48.552;9.370;2023-06-10T05:54:14;18.50;99.90
4602;DHT22;2313;48.552;9.370;2023-06-10T05:56:39;18.60;99.90
4602;DHT22;2313;48.552;9.370;2023-06-10T05:59:05;18.70;99.90
4602;DHT22;2313;48.552;9.370;2023-06-10T06:01:31;18.90;99.90
4602;DHT22;2313;48.552;9.370;2023-06-10T06:03:56;19.10;99.90
4602;DHT22;2313;48.552;9.370;2023-06-10T06:06:22;19.20;99.90
4602;DHT22;2313;48.552;9.370;2023-06-10T06:08:48;19.30;99.90
4602;DHT22;2313;48.552;9.370;2023-06-10T06:11:14;19.30;99.90
4602;DHT22;2313;48.552;9.370;2023-06-10T06:13:39;19.50;99.90
4602;DHT22;2313;48.552;9.370;2023-06-10T06:16:06;19.60;99.90
4602;DHT22;2313;48.552;9.370;2023-06-10T06:18:32;19.70;99.90
4602;DHT22;2313;48.552;9.370;2023-06-10T06:20:58;19.80;99.90
4602;DHT22;2313;48.552;9.370;2023-06-10T06:23:23;20.00;99.90
4602;DHT22;2313;48.552;9.370;2023-06-10T06:25:49;20.10;99.90
4602;DHT22;2313;48.552;9.370;2023-06-10T06:28:14;20.10;99.90
4602;DHT22;2313;48.552;9.370;2023-06-10T06:30:40;20.20;99.90
4602;DHT22;2313;48.552;9.370;2023-06-10T06:33:06;20.20;99.90
4602;DHT22;2313;48.552;9.370;2023-06-10T06:35:33;20.30;99.90
4602;DHT22;2313;48.552;9.370;2023-06-10T06:37:59;20.30;99.90
4602;DHT22;2313;48.552;9.370;2023-06-10T06:40:25;20.30;99.90
4602;DHT22;2313;48.552;9.370;2023-06-10T06:42:50;20.30;99.90
4602;DHT22;2313;48.552;9.370;2023-06-10T06:45:16;20.40;99.90
4602;DHT22;2313;48.552;9.370;2023-06-10T06:47:42;20.40;99.90
4602;DHT22;2313;48.552;9.370;2023-06-10T06:50:09;20.40;99.90
4602;DHT22;2313;48.552;9.370;2023-06-10T06:52:35;20.50;99.90
4602;DHT22;2313;48.552;9.370;2023-06-10T06:55:00;20.60;99.90
4602;DHT22;2313;48.552;9.370;2023-06-10T06:57:26;20.80;99.90
4602;DHT22;2313;48.552;9.370;2023-06-10T06:59:51;20.90;99.90
4602;DHT22;2313;48.552;9.370;2023-06-10T07:02:17;21.10;99.90
4602;DHT22;2313;48.552;9.370;2023-06-10T07:04:44;21.20;99.90
4602;DHT22;2313;48.552;9.370;2023-06-10T07:07:11;21.30;99.90
4602;DHT22;2313;48.552;9.370;2023-06-10T07:09:37;21.40;99.90
4602;DHT22;2313;48.552;9.370;2023-06-10T07:12:03;21.40;99.90
4602;DHT22;2313;48.552;9.370;2023-06-10T07:14:29;21.50;99.90
4602;DHT22;2313;48.552;9.370;2023-06-10T07:16:55;21.50;99.90
4602;DHT22;2313;48.552;9.370;2023-06-10T07:19:20;21.60;99.90
4602;DHT22;2313;48.552;9.370;2023-06-10T07:21:46;21.60;99.90
4602;DHT22;2313;48.552;9.370;2023-06-10T07:24:11;21.70;99.90
4602;DHT22;2313;48.552;9.370;2023-06-10T07:26:37;21.90;99.90
4602;DHT22;2313;48.552;9.370;2023-06-10T07:29:03;22.00;99.90
4602;DHT22;2313;48.552;9.370;2023-06-10T07:31:28;21.90;99.90
4602;DHT22;2313;48.552;9.370;2023-06-10T07:33:54;22.00;99.90
4602;DHT22;2313;48.552;9.370;2023-06-10T07:36:19;22.10;99.90
4602;DHT22;2313;48.552;9.370;2023-06-10T07:38:45;22.10;99.90
4602;DHT22;2313;48.552;9.370;2023-06-10T07:41:11;22.20;99.90
4602;DHT22;2313;48.552;9.370;2023-06-10T07:43:37;22.20;99.90
4602;DHT22;2313;48.552;9.370;2023-06-10T07:46:02;22.30;99.90
4602;DHT22;2313;48.552;9.370;2023-06-10T07:48:28;22.40;99.90
4602;DHT22;2313;48.552;9.370;2023-06-10T07:50:54;22.50;99.90
4602;DHT22;2313;48.552;9.370;2023-06-10T07:53:19;22.50;99.90
4602;DHT22;2313;48.552;9.370;2023-06-10T07:55:45;22.60;99.90
4602;DHT22;2313;48.552;9.370;2023-06-10T07:58:11;22.60;99.90
4602;DHT22;2313;48.552;9.370;2023-06-10T08:00:36;22.60;99.90
4602;DHT22;2313;48.552;9.370;2023-06-10T08:03:02;22.80;99.90
4602;DHT22;2313;48.552;9.370;2023-06-10T08:05:28;22.90;99.90
4602;DHT22;2313;48.552;9.370;2023-06-10T08:07:54;23.00;99.90
4602;DHT22;2313;48.552;9.370;2023-06-10T08:10:20;23.20;99.90
4602;DHT22;2313;48.552;9.370;2023-06-10T08:12:46;23.30;99.90
4602;DHT22;2313;48.552;9.370;2023-06-10T08:15:11;23.40;99.90
4602;DHT22;2313;48.552;9.370;2023-06-10T08:17:38;23.40;99.90
4602;DHT22;2313;48.552;9.370;2023-06-10T08:20:04;23.70;99.90
4602;DHT22;2313;48.552;9.370;2023-06-10T08:22:31;23.80;99.90
4602;DHT22;2313;48.552;9.370;2023-06-10T08:24:56;24.00;99.90
4602;DHT22;2313;48.552;9.370;2023-06-10T08:27:22;24.10;99.90
4602;DHT22;2313;48.552;9.370;2023-06-10T08:29:48;24.30;99.90
4602;DHT22;2313;48.552;9.370;2023-06-10T08:32:13;24.40;99.90
4602;DHT22;2313;48.552;9.370;2023-06-10T08:34:39;24.50;99.90
4602;DHT22;2313;48.552;9.370;2023-06-10T08:37:05;24.80;99.90
4602;DHT22;2313;48.552;9.370;2023-06-10T08:39:30;25.10;99.90
4602;DHT22;2313;48.552;9.370;2023-06-10T08:44:35;25.40;99.90
4602;DHT22;2313;48.552;9.370;2023-06-10T08:47:10;25.40;99.90
4602;DHT22;2313;48.552;9.370;2023-06-10T08:49:42;25.20;99.80
4602;DHT22;2313;48.552;9.370;2023-06-10T08:52:11;25.20;99.90
4602;DHT22;2313;48.552;9.370;2023-06-10T08:54:42;25.30;99.90
4602;DHT22;2313;48.552;9.370;2023-06-10T08:57:08;25.30;99.50
4602;DHT22;2313;48.552;9.370;2023-06-10T08:59:34;25.50;99.90
4602;DHT22;2313;48.552;9.370;2023-06-10T09:02:00;25.70;98.60
4602;DHT22;2313;48.552;9.370;2023-06-10T09:04:27;25.60;99.10
4602;DHT22;2313;48.552;9.370;2023-06-10T09:06:53;25.40;97.50
4602;DHT22;2313;48.552;9.370;2023-06-10T09:09:19;25.60;97.90
4602;DHT22;2313;48.552;9.370;2023-06-10T09:11:46;25.80;96.70
4602;DHT22;2313;48.552;9.370;2023-06-10T09:14:11;25.90;95.60
4602;DHT22;2313;48.552;9.370;2023-06-10T09:16:42;26.00;97.20
4602;DHT22;2313;48.552;9.370;2023-06-10T09:19:07;26.10;96.30
4602;DHT22;2313;48.552;9.370;2023-06-10T09:21:34;26.10;95.40
4602;DHT22;2313;48.552;9.370;2023-06-10T09:24:01;26.20;94.80
4602;DHT22;2313;48.552;9.370;2023-06-10T09:26:30;26.30;94.20
4602;DHT22;2313;48.552;9.370;2023-06-10T09:29:08;26.20;95.00
4602;DHT22;2313;48.552;9.370;2023-06-10T09:31:36;26.30;93.70
4602;DHT22;2313;48.552;9.370;2023-06-10T09:34:09;26.30;94.70
4602;DHT22;2313;48.552;9.370;2023-06-10T09:36:39;26.40;93.30
4602;DHT22;2313;48.552;9.370;2023-06-10T09:39:05;26.40;92.40
4602;DHT22;2313;48.552;9.370;2023-06-10T09:41:38;26.40;93.80
4602;DHT22;2313;48.552;9.370;2023-06-10T09:44:15;26.70;94.00
4602;DHT22;2313;48.552;9.370;2023-06-10T09:46:41;26.90;93.40
4602;DHT22;2313;48.552;9.370;2023-06-10T09:49:07;27.10;94.50
4602;DHT22;2313;48.552;9.370;2023-06-10T09:51:33;26.90;91.20
4602;DHT22;2313;48.552;9.370;2023-06-10T09:53:59;26.80;91.20
4602;DHT22;2313;48.552;9.370;2023-06-10T09:56:34;26.80;91.20
4602;DHT22;2313;48.552;9.370;2023-06-10T09:59:00;26.70;91.60
4602;DHT22;2313;48.552;9.370;2023-06-10T10:01:26;26.90;91.90
4602;DHT22;2313;48.552;9.370;2023-06-10T10:03:52;26.70;92.20
4602;DHT22;2313;48.552;9.370;2023-06-10T10:06:19;26.60;92.00
4602;DHT22;2313;48.552;9.370;2023-06-10T10:08:50;26.20;92.10
4602;DHT22;2313;48.552;9.370;2023-06-10T10:11:18;26.20;92.50
4602;DHT22;2313;48.552;9.370;2023-06-10T10:13:46;26.10;92.40
4602;DHT22;2313;48.552;9.370;2023-06-10T10:16:30;26.10;92.90
4602;DHT22;2313;48.552;9.370;2023-06-10T10:19:08;26.30;92.90
4602;DHT22;2313;48.552;9.370;2023-06-10T10:21:39;26.60;92.70
4602;DHT22;2313;48.552;9.370;2023-06-10T10:24:18;26.90;93.30
4602;DHT22;2313;48.552;9.370;2023-06-10T10:26:46;26.70;91.90
4602;DHT22;2313;48.552;9.370;2023-06-10T10:31:50;26.60;92.60
4602;DHT22;2313;48.552;9.370;2023-06-10T10:34:24;26.80;92.20
4602;DHT22;2313;48.552;9.370;2023-06-10T10:36:51;27.00;92.10
4602;DHT22;2313;48.552;9.370;2023-06-10T10:39:17;27.10;91.30
4602;DHT22;2313;48.552;9.370;2023-06-10T10:41:44;27.20;91.20
4602;DHT22;2313;48.552;9.370;2023-06-10T10:44:11;27.20;90.20
4602;DHT22;2313;48.552;9.370;2023-06-10T10:46:57;27.10;90.30
4602;DHT22;2313;48.552;9.370;2023-06-10T10:49:27;27.10;92.20
4602;DHT22;2313;48.552;9.370;2023-06-10T10:51:55;27.20;92.40
4602;DHT22;2313;48.552;9.370;2023-06-10T10:54:29;27.60;92.10
4602;DHT22;2313;48.552;9.370;2023-06-10T10:57:13;27.70;91.70
4602;DHT22;2313;48.552;9.370;2023-06-10T10:59:58;27.90;91.20
4602;DHT22;2313;48.552;9.370;2023-06-10T11:02:37;27.90;89.30
4602;DHT22;2313;48.552;9.370;2023-06-10T11:05:07;27.70;89.60
4602;DHT22;2313;48.552;9.370;2023-06-10T11:07:34;27.40;89.20
4602;DHT22;2313;48.552;9.370;2023-06-10T11:10:33;27.60;89.50
4602;DHT22;2313;48.552;9.370;2023-06-10T11:12:59;28.00;90.10
4602;DHT22;2313;48.552;9.370;2023-06-10T11:15:27;28.40;89.80
4602;DHT22;2313;48.552;9.370;2023-06-10T11:26:12;28.70;88.20
4602;DHT22;2313;48.552;9.370;2023-06-10T11:31:40;28.60;87.40
4602;DHT22;2313;48.552;9.370;2023-06-10T11:34:06;28.60;89.00
4602;DHT22;2313;48.552;9.370;2023-06-10T11:36:40;28.30;86.30
4602;DHT22;2313;48.552;9.370;2023-06-10T11:39:08;28.30;86.80
4602;DHT22;2313;48.552;9.370;2023-06-10T11:41:35;28.30;86.10
4602;DHT22;2313;48.552;9.370;2023-06-10T11:44:08;28.10;87.20
4602;DHT22;2313;48.552;9.370;2023-06-10T11:46:34;28.10;85.10
4602;DHT22;2313;48.552;9.370;2023-06-10T11:49:00;28.10;85.60
4602;DHT22;2313;48.552;9.370;2023-06-10T11:51:37;28.10;84.50
4602;DHT22;2313;48.552;9.370;2023-06-10T11:54:04;28.10;84.80
4602;DHT22;2313;48.552;9.370;2023-06-10T11:56:30;28.20;85.60
4602;DHT22;2313;48.552;9.370;2023-06-10T11:59:02;28.30;87.70
4602;DHT22;2313;48.552;9.370;2023-06-10T12:01:30;28.40;83.20
4602;DHT22;2313;48.552;9.370;2023-06-10T12:04:16;28.40;86.10
4602;DHT22;2313;48.552;9.370;2023-06-10T12:06:53;28.00;86.30
4602;DHT22;2313;48.552;9.370;2023-06-10T12:11:44;28.00;82.70
4602;DHT22;2313;48.552;9.370;2023-06-10T12:14:10;27.80;83.50
4602;DHT22;2313;48.552;9.370;2023-06-10T12:16:36;27.90;82.90
4602;DHT22;2313;48.552;9.370;2023-06-10T12:19:03;28.00;83.40
4602;DHT22;2313;48.552;9.370;2023-06-10T12:21:29;28.00;83.40
4602;DHT22;2313;48.552;9.370;2023-06-10T12:24:08;28.10;82.30
4602;DHT22;2313;48.552;9.370;2023-06-10T12:26:42;28.20;83.70
4602;DHT22;2313;48.552;9.370;2023-06-10T12:29:25;28.20;82.20
4602;DHT22;2313;48.552;9.370;2023-06-10T12:32:02;28.40;83.80
4602;DHT22;2313;48.552;9.370;2023-06-10T12:36:59;28.60;81.70
4602;DHT22;2313;48.552;9.370;2023-06-10T12:39:25;28.50;82.50
4602;DHT22;2313;48.552;9.370;2023-06-10T12:41:51;28.70;81.80
4602;DHT22;2313;48.552;9.370;2023-06-10T12:44:17;28.60;81.80
4602;DHT22;2313;48.552;9.370;2023-06-10T12:46:43;28.70;82.50
4602;DHT22;2313;48.552;9.370;2023-06-10T12:49:19;29.00;83.30
4602;DHT22;2313;48.552;9.370;2023-06-10T12:51:45;29.10;80.20
4602;DHT22;2313;48.552;9.370;2023-06-10T12:54:10;28.90;84.00
4602;DHT22;2313;48.552;9.370;2023-06-10T12:56:36;28.80;83.40
4602;DHT22;2313;48.552;9.370;2023-06-10T12:59:02;28.90;81.60
4602;DHT22;2313;48.552;9.370;2023-06-10T13:01:28;28.90;80.20
4602;DHT22;2313;48.552;9.370;2023-06-10T13:03:53;29.10;79.10
4602;DHT22;2313;48.552;9.370;2023-06-10T13:06:19;29.00;79.50
4602;DHT22;2313;48.552;9.370;2023-06-10T13:08:45;28.90;77.80
4602;DHT22;2313;48.552;9.370;2023-06-10T13:11:12;29.00;79.40
4602;DHT22;2313;48.552;9.370;2023-06-10T13:13:38;29.00;78.40
4602;DHT22;2313;48.552;9.370;2023-06-10T13:16:04;28.80;76.10
4602;DHT22;2313;48.552;9.370;2023-06-10T13:18:29;28.90;76.60
4602;DHT22;2313;48.552;9.370;2023-06-10T13:20:55;28.90;79.20
4602;DHT22;2313;48.552;9.370;2023-06-10T13:23:21;28.90;77.80
4602;DHT22;2313;48.552;9.370;2023-06-10T13:25:47;28.90;76.20
4602;DHT22;2313;48.552;9.370;2023-06-10T13:28:12;28.60;77.10
4602;DHT22;2313;48.552;9.370;2023-06-10T13:30:38;28.30;77.30
4602;DHT22;2313;48.552;9.370;2023-06-10T13:33:04;28.10;77.60
4602;DHT22;2313;48.552;9.370;2023-06-10T13:35:29;27.90;78.10
4602;DHT22;2313;48.552;9.370;2023-06-10T13:37:55;27.90;78.80
4602;DHT22;2313;48.552;9.370;2023-06-10T13:40:21;27.90;79.70
4602;DHT22;2313;48.552;9.370;2023-06-10T13:42:47;27.70;80.90
4602;DHT22;2313;48.552;9.370;2023-06-10T13:45:16;27.70;79.00
4602;DHT22;2313;48.552;9.370;2023-06-10T13:47:42;27.90;78.70
4602;DHT22;2313;48.552;9.370;2023-06-10T13:50:08;28.10;80.40
4602;DHT22;2313;48.552;9.370;2023-06-10T13:52:34;28.10;79.70
4602;DHT22;2313;48.552;9.370;2023-06-10T13:54:59;28.10;78.60
4602;DHT22;2313;48.552;9.370;2023-06-10T13:57:25;28.20;77.70
4602;DHT22;2313;48.552;9.370;2023-06-10T13:59:50;28.40;78.20
4602;DHT22;2313;48.552;9.370;2023-06-10T14:02:17;28.60;75.80
4602;DHT22;2313;48.552;9.370;2023-06-10T14:04:42;28.60;76.00
4602;DHT22;2313;48.552;9.370;2023-06-10T14:07:08;28.70;77.30
4602;DHT22;2313;48.552;9.370;2023-06-10T14:09:34;28.60;77.50
4602;DHT22;2313;48.552;9.370;2023-06-10T14:11:59;28.50;77.50
4602;DHT22;2313;48.552;9.370;2023-06-10T14:14:25;28.60;76.60
4602;DHT22;2313;48.552;9.370;2023-06-10T14:16:51;28.50;76.10
4602;DHT22;2313;48.552;9.370;2023-06-10T14:19:16;28.20;75.50
4602;DHT22;2313;48.552;9.370;2023-06-10T14:21:42;28.10;76.80
4602;DHT22;2313;48.552;9.370;2023-06-10T14:24:07;28.20;77.00
4602;DHT22;2313;48.552;9.370;2023-06-10T14:26:33;28.30;77.40
4602;DHT22;2313;48.552;9.370;2023-06-10T14:28:59;28.40;77.80
4602;DHT22;2313;48.552;9.370;2023-06-10T14:31:24;28.60;77.70
4602;DHT22;2313;48.552;9.370;2023-06-10T14:33:50;28.60;76.90
4602;DHT22;2313;48.552;9.370;2023-06-10T14:36:15;28.50;77.10
4602;DHT22;2313;48.552;9.370;2023-06-10T14:38:41;28.60;78.90
4602;DHT22;2313;48.552;9.370;2023-06-10T14:41:07;28.40;79.00
4602;DHT22;2313;48.552;9.370;2023-06-10T14:43:33;28.20;78.10
4602;DHT22;2313;48.552;9.370;2023-06-10T14:45:58;27.90;78.60
4602;DHT22;2313;48.552;9.370;2023-06-10T14:48:24;27.70;78.90
4602;DHT22;2313;48.552;9.370;2023-06-10T14:50:49;27.60;79.80
4602;DHT22;2313;48.552;9.370;2023-06-10T14:53:19;27.40;80.90
4602;DHT22;2313;48.552;9.370;2023-06-10T14:55:45;27.20;80.70
4602;DHT22;2313;48.552;9.370;2023-06-10T14:58:10;27.10;83.70
4602;DHT22;2313;48.552;9.370;2023-06-10T15:00:36;26.90;83.40
4602;DHT22;2313;48.552;9.370;2023-06-10T15:03:01;26.80;83.40
4602;DHT22;2313;48.552;9.370;2023-06-10T15:05:28;26.80;83.00
4602;DHT22;2313;48.552;9.370;2023-06-10T15:07:53;26.90;84.70
4602;DHT22;2313;48.552;9.370;2023-06-10T15:10:19;26.90;84.80
4602;DHT22;2313;48.552;9.370;2023-06-10T15:12:47;26.70;84.90
4602;DHT22;2313;48.552;9.370;2023-06-10T15:15:12;26.70;85.70
4602;DHT22;2313;48.552;9.370;2023-06-10T15:17:38;26.80;85.90
4602;DHT22;2313;48.552;9.370;2023-06-10T15:20:04;26.90;81.80
4602;DHT22;2313;48.552;9.370;2023-06-10T15:22:30;27.00;82.50
4602;DHT22;2313;48.552;9.370;2023-06-10T15:24:56;26.70;81.70
4602;DHT22;2313;48.552;9.370;2023-06-10T15:27:22;26.60;84.50
4602;DHT22;2313;48.552;9.370;2023-06-10T15:29:48;26.40;80.10
4602;DHT22;2313;48.552;9.370;2023-06-10T15:32:14;26.20;79.70
4602;DHT22;2313;48.552;9.370;2023-06-10T15:34:39;26.10;76.20
4602;DHT22;2313;48.552;9.370;2023-06-10T15:37:05;26.00;77.70
4602;DHT22;2313;48.552;9.370;2023-06-10T15:39:30;26.10;80.20
4602;DHT22;2313;48.552;9.370;2023-06-10T15:41:56;26.30;77.70
4602;DHT22;2313;48.552;9.370;2023-06-10T15:44:22;26.40;78.30
4602;DHT22;2313;48.552;9.370;2023-06-10T15:46:48;26.50;79.40
4602;DHT22;2313;48.552;9.370;2023-06-10T15:49:14;26.50;81.80
4602;DHT22;2313;48.552;9.370;2023-06-10T15:51:40;26.60;82.10
4602;DHT22;2313;48.552;9.370;2023-06-10T15:54:05;26.70;81.90
4602;DHT22;2313;48.552;9.370;2023-06-10T15:56:31;26.70;83.70
4602;DHT22;2313;48.552;9.370;2023-06-10T15:58:58;26.70;82.70
4602;DHT22;2313;48.552;9.370;2023-06-10T16:01:23;26.80;81.40
4602;DHT22;2313;48.552;9.370;2023-06-10T16:03:49;26.70;81.60
4602;DHT22;2313;48.552;9.370;2023-06-10T16:06:14;26.50;80.50
4602;DHT22;2313;48.552;9.370;2023-06-10T16:08:40;26.40;81.30
4602;DHT22;2313;48.552;9.370;2023-06-10T16:11:06;26.50;81.20
4602;DHT22;2313;48.552;9.370;2023-06-10T16:13:32;26.50;82.60
4602;DHT22;2313;48.552;9.370;2023-06-10T16:15:57;26.60;82.50
4602;DHT22;2313;48.552;9.370;2023-06-10T16:18:23;26.60;81.90
4602;DHT22;2313;48.552;9.370;2023-06-10T16:20:48;26.70;80.90
4602;DHT22;2313;48.552;9.370;2023-06-10T16:23:14;26.90;78.70
4602;DHT22;2313;48.552;9.370;2023-06-10T16:25:40;27.00;77.60
4602;DHT22;2313;48.552;9.370;2023-06-10T16:28:05;27.00;79.40